Time;durP1;ratioP1;P1;durP2;ratioP2;P2;SDS_P1;SDS_P2;PMS_P1;PMS_P2;Temp;Humidity;BMP_temperature;BMP_pressure;BME280_temperature;BME280_humidity;BME280_pressure;Samples;Min_cycle;Max_cycle;Signal;HPM_P1;HPM_P2
2022/06/22 00:02:14;;;;;;;15.65;14.00;;;15.70;98.40;;;;;;4936540;28;93000;-70
2022/06/22 00:04:48;;;;;;;15.25;13.20;;;15.80;98.30;;;;;;4937799;28;92402;-70
2022/06/22 00:07:37;;;;;;;15.15;13.52;;;15.70;98.20;;;;;;4937899;28;93304;-70
2022/06/22 00:10:32;;;;;;;15.75;12.85;;;15.70;98.10;;;;;;4936184;28;95692;-70
2022/06/22 00:13:01;;;;;;;14.82;12.45;;;15.70;98.10;;;;;;4937723;28;92881;-70
2022/06/22 00:15:36;;;;;;;16.67;12.88;;;15.60;98.10;;;;;;4936767;28;91846;-70
2022/06/22 00:18:27;;;;;;;13.73;12.20;;;15.60;98.10;;;;;;4935776;28;93247;-71
2022/06/22 00:20:58;;;;;;;15.02;13.43;;;15.60;97.90;;;;;;4937337;28;92348;-70
2022/06/22 00:23:39;;;;;;;13.13;11.93;;;15.50;97.90;;;;;;4935630;28;94846;-71
2022/06/22 00:26:39;;;;;;;13.20;11.93;;;15.50;97.90;;;;;;4937367;28;92373;-70
2022/06/22 00:29:09;;;;;;;12.90;11.60;;;15.40;97.80;;;;;;4914564;28;93330;-70
2022/06/22 00:31:42;;;;;;;18.55;15.52;;;15.40;97.80;;;;;;4935966;28;93096;-71
2022/06/22 00:34:09;;;;;;;19.35;16.05;;;15.40;98.00;;;;;;4937039;28;92596;-70
2022/06/22 00:36:39;;;;;;;20.67;15.77;;;15.30;98.50;;;;;;4937301;28;92932;-70
2022/06/22 00:39:21;;;;;;;18.17;15.75;;;15.30;98.70;;;;;;4935031;28;99031;-71
2022/06/22 00:41:59;;;;;;;21.05;15.93;;;15.40;98.80;;;;;;4937672;28;93228;-70
2022/06/22 00:44:31;;;;;;;22.40;17.55;;;15.30;99.10;;;;;;4936030;28;92453;-70
2022/06/22 00:47:21;;;;;;;20.85;17.30;;;15.20;99.20;;;;;;4937010;28;92346;-70
2022/06/22 00:49:48;;;;;;;19.15;17.17;;;15.20;99.30;;;;;;4935761;28;94900;-70
2022/06/22 00:52:45;;;;;;;19.35;17.25;;;15.20;99.50;;;;;;4935476;28;97991;-70
2022/06/22 00:55:38;;;;;;;19.73;16.58;;;15.20;99.50;;;;;;4931455;28;92365;-70
2022/06/22 00:58:08;;;;;;;16.58;14.77;;;15.10;99.70;;;;;;4935417;28;92523;-70
2022/06/22 01:00:41;;;;;;;20.02;15.05;;;15.00;99.80;;;;;;4936954;28;93241;-70
2022/06/22 01:03:38;;;;;;;18.60;15.57;;;15.00;99.80;;;;;;4936116;28;93100;-70
2022/06/22 01:06:21;;;;;;;21.13;15.93;;;15.00;99.70;;;;;;4935046;28;92733;-70
2022/06/22 01:09:12;;;;;;;16.08;13.68;;;14.90;99.90;;;;;;4937379;28;92013;-70
2022/06/22 01:12:19;;;;;;;17.92;14.90;;;15.00;99.90;;;;;;4936720;28;93302;-70
2022/06/22 01:15:04;;;;;;;18.27;15.20;;;14.90;99.90;;;;;;4912025;28;92534;-70
2022/06/22 01:18:02;;;;;;;15.38;13.75;;;14.80;99.90;;;;;;4934254;28;94788;-71
2022/06/22 01:20:59;;;;;;;14.43;12.63;;;14.80;99.90;;;;;;4936813;28;92359;-70
2022/06/22 01:23:54;;;;;;;17.55;12.23;;;14.80;99.90;;;;;;4936607;28;93924;-70
2022/06/22 01:26:33;;;;;;;18.15;14.65;;;14.70;99.90;;;;;;4934976;28;99373;-70
2022/06/22 01:29:06;;;;;;;16.40;12.95;;;14.70;99.90;;;;;;4936148;28;92509;-70
2022/06/22 01:31:34;;;;;;;14.53;12.27;;;14.70;99.90;;;;;;4936706;28;92428;-70
2022/06/22 01:34:02;;;;;;;14.38;12.95;;;14.70;99.90;;;;;;4934829;28;95696;-70
2022/06/22 01:36:33;;;;;;;19.52;12.85;;;14.60;99.90;;;;;;4936211;28;91927;-70
2022/06/22 01:39:02;;;;;;;16.88;13.43;;;14.60;99.70;;;;;;4936334;28;92413;-70
2022/06/22 01:41:51;;;;;;;13.45;12.05;;;14.60;99.80;;;;;;4936391;28;92445;-70
2022/06/22 01:44:39;;;;;;;13.80;12.30;;;14.60;99.60;;;;;;4949852;28;95574;-70
2022/06/22 01:47:22;;;;;;;14.20;12.70;;;14.60;99.50;;;;;;4936068;28;95486;-70
2022/06/22 01:50:10;;;;;;;18.35;12.18;;;14.50;99.40;;;;;;4918587;28;92548;-70
2022/06/22 01:53:01;;;;;;;15.48;12.23;;;14.50;99.40;;;;;;4936478;28;93117;-70
2022/06/22 01:55:37;;;;;;;14.73;10.98;;;14.50;99.40;;;;;;4934739;28;95821;-70
2022/06/22 01:58:19;;;;;;;16.33;12.98;;;14.40;99.30;;;;;;4935758;28;93068;-70
2022/06/22 02:01:00;;;;;;;13.00;11.70;;;14.40;99.20;;;;;;4936142;28;92486;-70
2022/06/22 02:03:37;;;;;;;14.70;12.52;;;14.30;99.10;;;;;;4918940;28;91738;-70
2022/06/22 02:09:13;;;;;;;13.50;11.73;;;14.20;99.50;;;;;;4934468;28;93118;-70
2022/06/22 02:11:47;;;;;;;11.82;10.70;;;14.20;99.50;;;;;;4949954;28;94909;-70
2022/06/22 02:14:25;;;;;;;12.93;11.38;;;14.10;99.20;;;;;;4934576;28;92511;-70
2022/06/22 02:16:57;;;;;;;11.20;10.07;;;14.10;99.10;;;;;;4935931;28;93131;-70
2022/06/22 02:19:27;;;;;;;10.65;9.55;;;14.10;99.10;;;;;;4935662;28;93530;-70
2022/06/22 02:22:01;;;;;;;9.98;9.05;;;14.10;98.90;;;;;;4936448;28;92450;-70
2022/06/22 02:24:34;;;;;;;9.43;8.40;;;14.00;98.50;;;;;;4936659;28;92435;-70
2022/06/22 02:27:05;;;;;;;9.97;8.93;;;14.00;98.60;;;;;;4935064;28;95761;-70
2022/06/22 02:29:42;;;;;;;9.23;8.32;;;13.90;98.40;;;;;;4936677;28;93026;-70
2022/06/22 02:32:17;;;;;;;9.77;8.80;;;13.90;98.40;;;;;;4935206;28;92510;-70
2022/06/22 02:34:49;;;;;;;10.15;8.40;;;13.80;98.60;;;;;;4936539;28;92463;-70
2022/06/22 02:37:22;;;;;;;9.30;8.23;;;13.80;98.40;;;;;;4934827;28;95755;-70
2022/06/22 02:39:54;;;;;;;9.85;8.63;;;13.80;98.30;;;;;;4935883;28;95464;-70
2022/06/22 02:45:09;;;;;;;8.30;7.50;;;13.70;98.40;;;;;;4935329;28;92904;-70
2022/06/22 02:47:58;;;;;;;9.20;8.27;;;13.70;98.50;;;;;;4937447;28;92520;-70
2022/06/22 02:50:49;;;;;;;8.23;7.53;;;13.70;98.30;;;;;;4939453;28;93001;-70
2022/06/22 02:53:28;;;;;;;9.32;8.50;;;13.60;98.50;;;;;;4939401;28;92458;-70
2022/06/22 02:55:56;;;;;;;8.10;7.30;;;13.60;98.40;;;;;;4938822;28;92343;-70
2022/06/22 02:58:30;;;;;;;9.25;8.38;;;13.60;98.30;;;;;;4938999;28;93193;-70
2022/06/22 03:01:06;;;;;;;9.07;8.27;;;13.60;98.20;;;;;;4939343;28;92997;-70
2022/06/22 03:03:36;;;;;;;8.57;7.88;;;13.60;98.30;;;;;;4937971;28;95435;-70
2022/06/22 03:06:04;;;;;;;7.35;6.65;;;13.60;98.20;;;;;;4937745;28;92544;-70
2022/06/22 03:08:31;;;;;;;8.48;7.68;;;13.50;98.00;;;;;;4937510;28;93358;-70
2022/06/22 03:11:01;;;;;;;7.93;6.88;;;13.50;97.90;;;;;;4937575;28;96048;-70
2022/06/22 03:13:43;;;;;;;8.10;7.47;;;13.50;97.90;;;;;;4939050;28;92427;-70
2022/06/22 03:16:34;;;;;;;9.13;7.35;;;13.50;97.90;;;;;;4921412;28;92570;-70
2022/06/22 03:19:06;;;;;;;9.07;8.23;;;13.50;97.90;;;;;;4937582;28;95881;-70
2022/06/22 03:21:33;;;;;;;9.85;8.73;;;13.40;98.00;;;;;;4938944;28;93121;-70
2022/06/22 03:24:19;;;;;;;9.80;8.90;;;13.40;98.10;;;;;;4937968;28;92558;-70
2022/06/22 03:26:55;;;;;;;9.52;8.52;;;13.50;98.10;;;;;;4939283;28;92352;-70
2022/06/22 03:29:32;;;;;;;10.73;9.00;;;13.40;98.30;;;;;;4935942;28;98144;-70
2022/06/22 03:32:11;;;;;;;11.07;9.30;;;13.40;98.20;;;;;;4921091;28;98416;-70
2022/06/22 03:34:45;;;;;;;9.48;8.50;;;13.40;98.20;;;;;;4937584;28;92476;-70
2022/06/22 03:37:31;;;;;;;8.20;7.45;;;13.40;98.30;;;;;;4937272;28;92495;-70
2022/06/22 03:40:04;;;;;;;9.27;8.48;;;13.50;98.10;;;;;;4938543;28;93250;-70
2022/06/22 03:42:46;;;;;;;9.55;8.65;;;13.40;98.40;;;;;;4938513;28;92909;-70
2022/06/22 03:45:27;;;;;;;12.98;9.95;;;13.40;98.90;;;;;;4938776;28;92491;-70
2022/06/22 03:48:01;;;;;;;17.08;9.55;;;13.40;99.20;;;;;;4921646;28;91799;-70
2022/06/22 03:50:40;;;;;;;33.58;10.23;;;13.30;99.30;;;;;;4938317;28;93295;-70
2022/06/22 03:53:14;;;;;;;18.55;10.90;;;13.30;99.40;;;;;;4937835;28;92435;-70
2022/06/22 03:55:46;;;;;;;25.70;9.73;;;13.20;99.50;;;;;;4936865;28;94959;-70
2022/06/22 03:58:14;;;;;;;15.85;10.07;;;13.10;99.40;;;;;;4937264;28;92505;-70
2022/06/22 04:00:43;;;;;;;34.28;10.75;;;13.00;99.50;;;;;;4937601;28;93328;-70
2022/06/22 04:03:13;;;;;;;30.60;8.57;;;13.00;99.60;;;;;;4936694;28;93093;-70
2022/06/22 04:05:46;;;;;;;25.65;8.32;;;13.00;99.70;;;;;;4938355;28;92449;-70
2022/06/22 04:08:21;;;;;;;11.45;7.38;;;13.00;99.60;;;;;;4938466;28;92447;-70
2022/06/22 04:11:11;;;;;;;7.80;5.72;;;13.00;99.60;;;;;;4937050;28;92546;-70
2022/06/22 04:13:52;;;;;;;21.70;7.22;;;12.90;99.50;;;;;;4942501;28;95691;-70
2022/06/22 04:16:27;;;;;;;25.90;7.20;;;12.90;99.50;;;;;;4936720;28;92532;-70
2022/06/22 04:19:12;;;;;;;11.80;6.38;;;12.90;99.50;;;;;;4936547;28;95013;-70
2022/06/22 04:21:44;;;;;;;22.15;7.97;;;13.00;99.60;;;;;;4936442;28;96872;-70
2022/06/22 04:24:16;;;;;;;27.52;8.45;;;13.10;99.50;;;;;;4937949;28;95391;-70
2022/06/22 04:26:49;;;;;;;10.20;7.68;;;13.10;99.40;;;;;;4938073;28;92654;-70
2022/06/22 04:29:29;;;;;;;14.93;7.45;;;13.20;99.40;;;;;;4936565;28;92451;-70
2022/06/22 04:32:37;;;;;;;12.73;8.68;;;13.30;99.30;;;;;;4937980;28;93252;-70
2022/06/22 04:35:26;;;;;;;14.88;7.80;;;13.40;99.20;;;;;;4926384;28;92952;-70
2022/06/22 04:37:55;;;;;;;20.73;8.93;;;13.40;99.60;;;;;;4938154;28;92364;-70
2022/06/22 04:40:48;;;;;;;13.95;8.63;;;13.40;99.80;;;;;;4936518;28;92343;-70
2022/06/22 04:43:15;;;;;;;19.17;9.82;;;13.50;99.70;;;;;;4936531;28;92448;-70
2022/06/22 04:45:45;;;;;;;10.27;9.27;;;13.50;99.90;;;;;;4937334;28;92966;-70
2022/06/22 04:48:50;;;;;;;10.55;9.48;;;13.60;99.90;;;;;;4936512;28;94820;-70
2022/06/22 04:51:22;;;;;;;10.00;9.00;;;13.80;99.90;;;;;;4923754;28;94233;-70
2022/06/22 04:54:00;;;;;;;10.85;9.75;;;13.80;99.90;;;;;;4937625;28;93278;-70
2022/06/22 04:56:38;;;;;;;11.63;10.43;;;13.90;99.90;;;;;;4937475;28;93023;-70
2022/06/22 04:59:07;;;;;;;13.32;11.20;;;14.00;99.90;;;;;;4935983;28;92449;-70
2022/06/22 05:01:46;;;;;;;11.82;10.48;;;14.00;99.90;;;;;;4935219;28;92934;-70
2022/06/22 05:04:30;;;;;;;11.20;10.02;;;14.20;99.90;;;;;;4936196;28;93322;-70
2022/06/22 05:07:00;;;;;;;;;;;14.30;99.90;;;;;;4936027;28;96905;-70
2022/06/22 05:09:40;;;;;;;12.68;11.48;;;14.20;99.90;;;;;;4937784;28;92457;-70
2022/06/22 05:12:14;;;;;;;10.40;9.40;;;14.30;99.90;;;;;;4936943;28;92445;-70
2022/06/22 05:14:42;;;;;;;14.05;11.63;;;14.40;99.90;;;;;;4934763;28;95403;-70
2022/06/22 05:17:25;;;;;;;14.43;12.73;;;14.50;99.90;;;;;;4936374;28;95187;-70
2022/06/22 05:20:15;;;;;;;13.77;10.63;;;14.70;99.90;;;;;;4935189;28;92498;-70
2022/06/22 05:22:42;;;;;;;14.10;12.27;;;14.90;99.90;;;;;;4935601;28;92514;-70
2022/06/22 05:25:12;;;;;;;13.13;11.82;;;14.90;99.90;;;;;;4936473;28;93166;-70
2022/06/22 05:28:11;;;;;;;13.82;11.80;;;15.10;99.90;;;;;;4934861;28;94126;-70
2022/06/22 05:30:42;;;;;;;13.32;11.93;;;15.40;99.90;;;;;;4929575;28;93020;-73
2022/06/22 05:33:18;;;;;;;15.50;11.30;;;15.70;99.80;;;;;;4951651;28;91888;-73
2022/06/22 05:36:00;;;;;;;12.45;11.10;;;16.00;99.40;;;;;;4934741;28;94202;-70
2022/06/22 05:38:28;;;;;;;14.07;12.15;;;16.30;98.90;;;;;;4951181;28;95810;-70
2022/06/22 05:40:56;;;;;;;13.98;11.68;;;16.40;98.70;;;;;;4934650;28;95354;-70
2022/06/22 05:43:24;;;;;;;16.45;12.23;;;16.60;98.70;;;;;;4919132;28;92519;-70
2022/06/22 05:45:57;;;;;;;13.98;11.60;;;16.80;98.50;;;;;;4936229;28;93265;-70
2022/06/22 05:48:26;;;;;;;;;;;17.00;98.20;;;;;;4935538;28;93115;-70
2022/06/22 05:51:01;;;;;;;15.38;11.25;;;17.00;97.90;;;;;;4937804;28;92365;-70
2022/06/22 05:53:37;;;;;;;14.07;11.20;;;17.10;98.10;;;;;;4936432;28;93094;-70
2022/06/22 05:56:25;;;;;;;13.00;10.23;;;17.30;97.80;;;;;;4936260;28;93177;-70
2022/06/22 05:59:07;;;;;;;11.15;10.02;;;17.30;97.60;;;;;;4936307;28;93033;-70
2022/06/22 06:02:01;;;;;;;12.05;10.85;;;17.30;97.50;;;;;;4934527;28;92474;-70
2022/06/22 06:04:40;;;;;;;11.65;10.45;;;17.50;97.40;;;;;;4936045;28;92442;-70
2022/06/22 06:07:29;;;;;;;11.07;9.95;;;17.60;97.50;;;;;;4934824;28;95390;-70
2022/06/22 06:09:56;;;;;;;11.75;10.60;;;17.70;97.10;;;;;;4951226;28;95321;-70
2022/06/22 06:12:33;;;;;;;10.70;8.48;;;17.70;97.10;;;;;;4934834;28;92830;-70
2022/06/22 06:15:02;;;;;;;9.27;8.25;;;17.90;96.80;;;;;;4936520;28;92439;-70
2022/06/22 06:17:37;;;;;;;9.40;8.25;;;17.90;96.00;;;;;;4918789;28;95858;-70
2022/06/22 06:20:07;;;;;;;11.05;8.82;;;18.00;95.90;;;;;;4918772;28;95678;-70
2022/06/22 06:22:36;;;;;;;9.77;7.90;;;17.90;95.70;;;;;;4936442;28;92501;-70
2022/06/22 06:28:10;;;;;;;9.88;8.98;;;18.00;94.70;;;;;;4939773;28;93174;-71
2022/06/22 06:30:50;;;;;;;9.65;7.35;;;17.90;94.60;;;;;;4939852;28;92980;-70
2022/06/22 06:33:28;;;;;;;7.15;4.97;;;18.00;94.90;;;;;;4936922;28;94885;-71
2022/06/22 06:36:01;;;;;;;6.40;5.68;;;18.10;93.90;;;;;;4939581;28;92773;-71
2022/06/22 06:38:38;;;;;;;7.85;7.15;;;18.10;92.80;;;;;;4939620;28;93183;-71
2022/06/22 06:41:15;;;;;;;9.57;6.05;;;18.30;92.90;;;;;;4937846;28;95706;-71
2022/06/22 06:43:46;;;;;;;8.05;5.95;;;18.30;92.70;;;;;;4938081;28;92602;-71
2022/06/22 06:46:37;;;;;;;11.05;6.97;;;18.30;93.10;;;;;;4939623;28;92458;-71
2022/06/22 06:49:22;;;;;;;7.97;5.85;;;18.40;93.40;;;;;;4932545;28;93968;-71
2022/06/22 06:52:01;;;;;;;7.88;5.57;;;18.60;92.60;;;;;;4939068;28;92991;-71
2022/06/22 06:54:42;;;;;;;10.02;5.50;;;18.80;92.60;;;;;;4939541;28;92414;-71
2022/06/22 06:57:15;;;;;;;7.10;5.68;;;18.90;92.30;;;;;;4939378;28;92355;-71
2022/06/22 06:59:45;;;;;;;9.63;6.97;;;19.10;92.40;;;;;;4937008;28;95625;-71
2022/06/22 07:02:37;;;;;;;10.63;6.10;;;19.20;92.10;;;;;;4937408;28;95454;-71
2022/06/22 07:05:10;;;;;;;6.43;5.43;;;19.30;91.80;;;;;;4938803;28;92363;-71
2022/06/22 07:07:55;;;;;;;8.40;6.72;;;19.30;91.60;;;;;;4939408;28;92502;-71
2022/06/22 07:10:40;;;;;;;9.35;5.60;;;19.30;91.10;;;;;;4937690;28;95789;-70
2022/06/22 07:13:19;;;;;;;9.80;6.65;;;19.40;90.90;;;;;;4938763;28;93170;-71
2022/06/22 07:15:53;;;;;;;8.30;7.10;;;19.30;90.70;;;;;;4939330;28;92390;-70
2022/06/22 07:18:22;;;;;;;8.00;5.85;;;19.30;91.10;;;;;;4939602;28;91634;-71
2022/06/22 07:21:12;;;;;;;7.05;6.30;;;19.40;91.20;;;;;;4937329;28;93322;-71
2022/06/22 07:23:45;;;;;;;7.00;6.15;;;19.30;90.30;;;;;;4939025;28;92988;-71
2022/06/22 07:26:53;;;;;;;9.10;5.18;;;19.20;90.40;;;;;;4936228;28;94942;-71
2022/06/22 07:29:42;;;;;;;10.35;6.40;;;19.20;90.50;;;;;;4936570;28;92328;-70
2022/06/22 07:32:15;;;;;;;5.85;4.95;;;19.20;90.20;;;;;;4937047;28;95734;-70
2022/06/22 07:34:50;;;;;;;7.03;6.00;;;19.20;90.40;;;;;;4938493;28;94366;-70
2022/06/22 07:37:32;;;;;;;6.50;5.75;;;19.20;90.30;;;;;;4954022;28;93055;-70
2022/06/22 07:40:05;;;;;;;6.28;5.40;;;19.30;90.30;;;;;;4937232;28;92696;-70
2022/06/22 07:42:32;;;;;;;7.65;4.10;;;19.30;89.90;;;;;;4937085;28;95769;-71
2022/06/22 07:45:00;;;;;;;8.10;4.65;;;19.40;89.50;;;;;;4921431;28;95663;-71
2022/06/22 07:47:41;;;;;;;7.75;6.03;;;19.50;89.80;;;;;;4938702;28;92391;-71
2022/06/22 07:50:19;;;;;;;8.32;5.13;;;19.70;89.40;;;;;;4936966;28;92632;-71
2022/06/22 07:52:55;;;;;;;4.70;4.30;;;19.70;88.90;;;;;;4937235;28;95686;-71
2022/06/22 07:55:37;;;;;;;7.35;4.57;;;19.80;89.30;;;;;;4937069;28;98663;-71
2022/06/22 07:58:13;;;;;;;6.25;5.55;;;19.90;89.50;;;;;;4937110;28;92428;-70
2022/06/22 08:00:42;;;;;;;8.52;5.65;;;20.00;89.60;;;;;;4938316;28;92356;-71
2022/06/22 08:03:33;;;;;;;7.10;4.03;;;20.00;89.30;;;;;;4936480;28;95733;-71
2022/06/22 08:06:09;;;;;;;8.23;4.53;;;20.10;87.50;;;;;;4917948;28;95978;-71
2022/06/22 08:08:55;;;;;;;7.90;3.95;;;20.30;88.10;;;;;;4937025;28;92436;-71
2022/06/22 08:11:39;;;;;;;5.85;3.90;;;20.70;87.80;;;;;;4938789;28;91641;-71
2022/06/22 08:14:24;;;;;;;5.82;5.00;;;21.50;86.90;;;;;;4936517;28;95912;-70
2022/06/22 08:17:00;;;;;;;4.95;4.55;;;22.80;83.60;;;;;;4938148;28;92951;-71
2022/06/22 08:19:29;;;;;;;5.57;4.47;;;24.40;79.20;;;;;;4935398;28;94866;-71
2022/06/22 08:22:00;;;;;;;7.05;4.82;;;25.50;72.70;;;;;;4920542;28;93025;-71
2022/06/22 08:24:32;;;;;;;6.35;4.00;;;26.70;68.80;;;;;;4938273;28;93235;-71
2022/06/22 08:27:04;;;;;;;5.35;4.85;;;28.10;64.60;;;;;;4937879;28;93007;-71
2022/06/22 08:29:32;;;;;;;5.22;3.92;;;29.10;61.00;;;;;;4938083;28;92543;-72
2022/06/22 08:32:06;;;;;;;5.97;3.03;;;30.20;58.30;;;;;;4937608;28;93208;-72
2022/06/22 08:34:56;;;;;;;4.22;3.13;;;31.30;55.00;;;;;;4937798;28;93177;-72
2022/06/22 08:37:59;;;;;;;3.97;2.72;;;31.80;50.90;;;;;;4936463;28;97228;-72
2022/06/22 08:40:36;;;;;;;4.45;3.17;;;32.60;46.80;;;;;;4942837;28;92497;-72
2022/06/22 08:43:13;;;;;;;4.57;4.28;;;32.80;45.60;;;;;;4937640;28;92391;-72
2022/06/22 08:46:05;;;;;;;4.28;3.50;;;32.50;45.20;;;;;;4933986;28;98144;-72
2022/06/22 08:48:52;;;;;;;3.20;2.90;;;32.90;44.20;;;;;;4936222;28;96672;-72
2022/06/22 08:51:32;;;;;;;3.53;2.75;;;33.40;42.60;;;;;;4937557;28;93011;-72
2022/06/22 08:54:17;;;;;;;5.05;3.00;;;33.50;40.10;;;;;;4936315;28;92560;-72
2022/06/22 08:56:59;;;;;;;5.75;4.10;;;33.50;39.70;;;;;;4937625;28;93437;-72
2022/06/22 09:00:01;;;;;;;4.03;3.22;;;33.80;41.00;;;;;;4937214;28;93098;-72
2022/06/22 09:02:41;;;;;;;;;;;34.20;40.80;;;;;;4935930;28;92760;-72
2022/06/22 09:05:46;;;;;;;5.03;2.80;;;33.50;40.30;;;;;;4938473;28;91744;-72
2022/06/22 09:08:34;;;;;;;4.07;2.65;;;33.80;40.20;;;;;;4937413;28;93319;-72
2022/06/22 09:11:21;;;;;;;4.43;4.03;;;34.00;39.40;;;;;;4937443;28;93078;-72
2022/06/22 09:14:26;;;;;;;4.68;3.83;;;33.90;39.50;;;;;;4936472;28;94804;-72
2022/06/22 09:17:30;;;;;;;5.47;3.90;;;33.10;39.30;;;;;;4937360;28;92410;-72
2022/06/22 09:20:00;;;;;;;4.85;3.30;;;32.10;40.70;;;;;;4937253;28;93323;-72
2022/06/22 09:22:57;;;;;;;6.32;3.65;;;30.80;42.50;;;;;;4936777;28;92870;-71
2022/06/22 09:25:47;;;;;;;4.40;3.00;;;30.20;44.00;;;;;;4935807;28;92483;-71
2022/06/22 09:28:38;;;;;;;6.95;4.25;;;29.50;44.30;;;;;;4936816;28;92367;-71
2022/06/22 09:31:18;;;;;;;6.30;4.65;;;28.80;46.60;;;;;;4935622;28;95781;-71
2022/06/22 09:34:06;;;;;;;6.45;4.20;;;28.10;48.70;;;;;;4935837;28;94117;-71
2022/06/22 09:37:24;;;;;;;4.35;3.30;;;27.70;49.90;;;;;;4935752;28;92562;-71
2022/06/22 09:40:03;;;;;;;6.10;3.92;;;27.20;50.50;;;;;;4914777;28;92494;-71
2022/06/22 09:42:45;;;;;;;5.85;3.10;;;26.50;50.10;;;;;;4935488;28;96237;-71
2022/06/22 09:45:30;;;;;;;5.32;4.65;;;26.20;51.00;;;;;;4936596;28;95624;-71
2022/06/22 09:48:48;;;;;;;6.63;4.20;;;26.00;52.10;;;;;;4936974;28;92339;-71
2022/06/22 09:51:36;;;;;;;4.95;3.58;;;25.70;52.30;;;;;;4919110;28;92481;-71
2022/06/22 09:57:38;;;;;;;6.43;4.43;;;25.30;54.00;;;;;;4936337;28;93389;-71
2022/06/22 10:00:10;;;;;;;6.35;4.32;;;25.10;55.70;;;;;;4935746;28;93369;-71
2022/06/22 10:03:02;;;;;;;8.40;5.00;;;25.00;57.30;;;;;;4937133;28;91938;-71
2022/06/22 10:06:10;;;;;;;6.68;4.78;;;24.90;57.60;;;;;;4934687;28;95792;-71
2022/06/22 10:09:08;;;;;;;5.05;4.00;;;24.90;58.60;;;;;;4900487;28;93017;-71
2022/06/22 10:11:40;;;;;;;9.55;6.15;;;24.80;59.90;;;;;;4935509;28;95460;-71
2022/06/22 10:14:56;;;;;;;8.77;5.07;;;24.60;61.10;;;;;;4935305;28;92524;-71
2022/06/22 10:17:52;;;;;;;6.60;4.65;;;24.60;62.20;;;;;;4936285;28;93439;-71
2022/06/22 10:21:06;;;;;;;5.13;4.63;;;24.40;61.40;;;;;;4934726;28;95449;-71
2022/06/22 10:23:44;;;;;;;9.13;4.22;;;24.30;61.00;;;;;;4895623;28;93248;-71
2022/06/22 10:26:23;;;;;;;5.15;4.63;;;24.50;60.40;;;;;;4895837;28;92576;-71
2022/06/22 10:29:12;;;;;;;8.88;3.70;;;24.50;60.50;;;;;;4913142;28;95937;-71
2022/06/22 10:31:57;;;;;;;4.95;3.92;;;24.60;60.90;;;;;;4936537;28;92853;-71
2022/06/22 10:34:48;;;;;;;6.70;4.93;;;24.60;62.30;;;;;;4936381;28;92468;-71
2022/06/22 10:37:42;;;;;;;8.10;5.93;;;24.60;61.40;;;;;;4936594;28;92374;-71
2022/06/22 10:46:14;;;;;;;;;;;24.50;61.40;;;;;;4935094;28;95608;-72
2022/06/22 10:49:05;;;;;;;5.70;4.15;;;24.40;61.80;;;;;;4936907;28;92440;-70
2022/06/22 10:52:07;;;;;;;5.82;4.63;;;24.50;61.20;;;;;;4936004;28;93289;-72
2022/06/22 10:54:53;;;;;;;6.72;4.85;;;24.70;60.10;;;;;;4934549;28;92930;-71
2022/06/22 10:57:23;;;;;;;6.72;5.15;;;24.80;58.40;;;;;;4934785;28;92610;-71
2022/06/22 11:00:17;;;;;;;7.50;4.75;;;24.90;59.00;;;;;;4936416;28;91730;-71
2022/06/22 11:03:17;;;;;;;10.25;4.45;;;24.90;59.30;;;;;;4934794;28;93290;-71
2022/06/22 11:06:09;;;;;;;8.85;4.95;;;24.70;59.30;;;;;;4934673;28;93602;-71
2022/06/22 11:09:10;;;;;;;6.32;4.80;;;24.50;59.30;;;;;;4936156;28;94853;-71
2022/06/22 11:12:08;;;;;;;6.88;5.10;;;24.60;59.10;;;;;;4939279;28;92431;-71
2022/06/22 11:14:47;;;;;;;6.28;5.30;;;24.70;60.00;;;;;;4937578;28;93305;-71
2022/06/22 11:17:19;;;;;;;7.93;4.88;;;24.70;59.90;;;;;;4937540;28;95705;-71
2022/06/22 11:20:26;;;;;;;6.50;5.78;;;24.70;59.70;;;;;;4939192;28;92407;-71
2022/06/22 11:22:55;;;;;;;7.55;5.70;;;24.80;60.30;;;;;;4937498;28;92553;-71
2022/06/22 11:31:57;;;;;;;8.75;5.00;;;25.20;61.30;;;;;;4937403;28;92478;-71
2022/06/22 11:34:52;;;;;;;9.05;6.13;;;25.20;61.80;;;;;;4953624;28;92501;-71
2022/06/22 11:37:52;;;;;;;12.20;5.53;;;25.30;61.80;;;;;;4937331;28;95687;-71
2022/06/22 11:40:25;;;;;;;8.35;6.40;;;25.30;62.00;;;;;;4936108;28;94258;-71
2022/06/22 11:43:21;;;;;;;;;;;25.30;62.50;;;;;;4939555;28;92431;-71
2022/06/22 11:46:07;;;;;;;7.22;6.30;;;25.30;63.10;;;;;;4938312;28;92479;-71
2022/06/22 11:48:59;;;;;;;8.57;4.32;;;25.40;62.10;;;;;;4920954;28;95923;-71
2022/06/22 11:52:04;;;;;;;7.63;5.32;;;25.60;61.10;;;;;;4938258;28;92900;-71
2022/06/22 11:54:52;;;;;;;6.07;4.15;;;25.70;60.50;;;;;;4936836;28;92527;-71
2022/06/22 11:57:36;;;;;;;6.95;4.72;;;25.80;60.70;;;;;;4939107;28;91814;-71
2022/06/22 12:00:29;;;;;;;5.57;3.53;;;25.90;59.70;;;;;;4936802;28;95800;-71
2022/06/22 12:03:34;;;;;;;4.77;4.20;;;25.90;58.40;;;;;;4938522;28;93048;-71
2022/06/22 12:06:11;;;;;;;3.80;3.08;;;26.00;57.90;;;;;;4937595;28;94824;-71
2022/06/22 12:08:51;;;;;;;4.32;3.92;;;26.00;56.70;;;;;;4938279;28;92636;-71
2022/06/22 12:11:56;;;;;;;6.72;4.43;;;26.00;56.50;;;;;;4938161;28;93012;-71
2022/06/22 12:17:32;;;;;;;4.47;3.33;;;26.00;56.60;;;;;;4936977;28;92561;-71
2022/06/22 12:20:08;;;;;;;4.63;3.55;;;26.20;55.40;;;;;;4938195;28;92572;-71
2022/06/22 12:23:13;;;;;;;7.65;5.60;;;26.10;55.60;;;;;;4938044;28;93118;-71
2022/06/22 12:25:59;;;;;;;5.15;3.60;;;26.10;55.50;;;;;;4919643;28;93063;-71
2022/06/22 12:29:00;;;;;;;7.28;3.33;;;26.10;55.30;;;;;;4938248;28;93167;-71
2022/06/22 12:31:36;;;;;;;3.88;3.28;;;26.20;55.40;;;;;;4936702;28;92523;-71
2022/06/22 12:34:33;;;;;;;7.25;3.60;;;26.20;55.80;;;;;;4934893;28;96686;-71
2022/06/22 12:37:10;;;;;;;6.88;3.40;;;26.10;56.00;;;;;;4937821;28;94219;-71
2022/06/22 12:39:51;;;;;;;6.30;4.50;;;26.10;56.60;;;;;;4937688;28;92366;-71
2022/06/22 12:42:37;;;;;;;6.10;4.28;;;26.20;56.80;;;;;;4936428;28;92500;-71
2022/06/22 12:45:06;;;;;;;3.67;3.38;;;26.20;56.40;;;;;;4936294;28;95785;-71
2022/06/22 12:48:03;;;;;;;5.57;4.20;;;26.30;54.90;;;;;;4936106;28;95490;-71
2022/06/22 12:50:39;;;;;;;4.95;3.55;;;26.40;54.60;;;;;;4937802;28;92506;-71
2022/06/22 12:53:29;;;;;;;5.30;3.60;;;26.40;55.00;;;;;;4934167;28;91819;-71
2022/06/22 12:56:07;;;;;;;6.10;4.43;;;26.40;55.40;;;;;;4937281;28;93162;-71
2022/06/22 12:58:45;;;;;;;6.05;4.15;;;26.40;55.00;;;;;;4937327;28;92927;-71
2022/06/22 13:01:12;;;;;;;4.60;4.28;;;26.50;54.20;;;;;;4935303;28;95335;-71
2022/06/22 13:04:04;;;;;;;4.57;3.20;;;26.50;54.10;;;;;;4935500;28;92629;-71
2022/06/22 13:06:32;;;;;;;5.22;4.05;;;26.60;53.80;;;;;;4937210;28;93163;-71
2022/06/22 13:09:01;;;;;;;7.43;2.85;;;26.60;53.50;;;;;;4936983;28;93040;-71
2022/06/22 13:11:31;;;;;;;6.82;2.85;;;26.60;53.40;;;;;;4936003;28;92446;-71
2022/06/22 13:14:36;;;;;;;4.63;3.42;;;26.60;51.90;;;;;;4937122;28;92448;-71
2022/06/22 13:17:28;;;;;;;6.05;3.80;;;26.60;51.40;;;;;;4895466;28;96780;-71
2022/06/22 13:20:03;;;;;;;5.05;3.67;;;26.50;50.70;;;;;;4936930;28;93102;-71
2022/06/22 13:22:36;;;;;;;5.82;4.57;;;26.50;50.80;;;;;;4919848;28;92479;-71
2022/06/22 13:25:18;;;;;;;;;;;26.60;51.50;;;;;;4937708;28;92454;-71
2022/06/22 13:28:11;;;;;;;3.63;2.50;;;26.40;51.80;;;;;;4937067;28;95653;-71
2022/06/22 13:30:43;;;;;;;6.30;3.03;;;26.50;51.80;;;;;;4936544;28;95254;-71
2022/06/22 13:33:19;;;;;;;3.20;2.65;;;26.70;53.00;;;;;;4937083;28;92477;-71
2022/06/22 13:36:06;;;;;;;5.97;3.00;;;26.80;52.00;;;;;;4937190;28;92413;-71
2022/06/22 13:38:51;;;;;;;5.43;2.70;;;26.80;51.80;;;;;;4935485;28;95765;-71
2022/06/22 13:41:18;;;;;;;4.25;3.15;;;26.90;52.60;;;;;;4935492;28;95454;-71
2022/06/22 13:44:15;;;;;;;5.32;2.60;;;26.90;50.60;;;;;;4936638;28;93263;-71
2022/06/22 13:47:06;;;;;;;5.07;4.18;;;27.00;49.70;;;;;;4935910;28;92593;-71
2022/06/22 13:49:45;;;;;;;4.13;3.83;;;27.00;50.00;;;;;;4935321;28;94859;-71
2022/06/22 13:52:44;;;;;;;5.95;2.97;;;27.00;49.90;;;;;;4935439;28;95535;-71
2022/06/22 13:55:17;;;;;;;3.75;3.35;;;27.20;48.80;;;;;;4930336;28;94861;-71
2022/06/22 13:57:49;;;;;;;5.90;4.68;;;27.10;48.30;;;;;;4935353;28;92457;-71
2022/06/22 14:00:29;;;;;;;4.90;3.93;;;27.10;50.50;;;;;;4951764;28;93260;-71
2022/06/22 14:03:08;;;;;;;6.00;2.83;;;27.00;50.30;;;;;;4934783;28;95815;-71
2022/06/22 14:05:37;;;;;;;3.83;3.33;;;27.00;50.80;;;;;;4936433;28;92558;-71
2022/06/22 14:08:33;;;;;;;5.88;3.17;;;27.00;50.50;;;;;;4936446;28;92412;-71
2022/06/22 14:11:20;;;;;;;5.80;4.20;;;27.10;50.60;;;;;;4915548;28;93211;-71
2022/06/22 14:13:58;;;;;;;5.30;3.50;;;27.20;49.60;;;;;;4936575;28;93072;-71
2022/06/22 14:16:35;;;;;;;5.65;2.80;;;27.10;48.90;;;;;;4936938;28;92534;-71
2022/06/22 14:19:07;;;;;;;5.10;2.65;;;27.10;49.50;;;;;;4951505;28;92487;-71
2022/06/22 14:21:57;;;;;;;5.15;3.10;;;27.20;50.30;;;;;;4935247;28;95732;-71
2022/06/22 14:24:33;;;;;;;8.10;4.43;;;27.30;51.00;;;;;;4936326;28;96517;-71